createdAt,value
2022-10-02T00:00:18.790Z,1.80
2022-10-02T00:03:13.207Z,1.08
2022-10-02T00:06:04.931Z,1.52
2022-10-02T00:08:54.688Z,1.77
2022-10-02T00:11:43.989Z,1.40
2022-10-02T00:14:35.295Z,1.20
2022-10-02T00:17:25.234Z,1.52
2022-10-02T00:20:13.880Z,1.40
2022-10-02T00:23:07.770Z,1.55
2022-10-02T00:26:12.805Z,1.40
2022-10-02T00:29:07.134Z,1.63
2022-10-02T00:32:31.198Z,1.95
2022-10-02T00:35:22.275Z,1.65
2022-10-02T00:39:02.998Z,1.48
2022-10-02T00:42:35.272Z,1.40
2022-10-02T00:45:58.081Z,1.40
2022-10-02T00:48:51.268Z,1.77
2022-10-02T00:52:13.836Z,1.63
2022-10-02T00:55:20.944Z,1.88
2022-10-02T00:58:35.684Z,1.90
2022-10-02T01:01:47.177Z,1.87
2022-10-02T01:04:35.365Z,1.40
2022-10-02T01:07:20.748Z,1.77
2022-10-02T01:10:06.592Z,1.95
2022-10-02T01:12:52.487Z,1.80
2022-10-02T01:15:49.553Z,2.00
2022-10-02T01:18:34.724Z,1.70
2022-10-02T01:21:37.464Z,1.50
2022-10-02T01:24:30.097Z,1.77
2022-10-02T01:27:15.091Z,1.60
2022-10-02T01:30:07.442Z,1.73
2022-10-02T01:32:56.238Z,1.80
2022-10-02T01:35:42.186Z,2.00
2022-10-02T01:38:28.287Z,2.03
2022-10-02T01:41:13.520Z,1.67
2022-10-02T01:44:02.231Z,2.10
2022-10-02T01:47:04.750Z,2.17
2022-10-02T01:49:58.789Z,1.90
2022-10-02T01:53:03.745Z,2.25
2022-10-02T01:56:13.105Z,1.80
2022-10-02T01:58:58.393Z,1.73
2022-10-02T02:02:12.223Z,1.45
2022-10-02T02:05:06.429Z,1.88
2022-10-02T02:08:19.027Z,2.05
2022-10-02T02:11:14.117Z,1.65
2022-10-02T02:14:21.839Z,1.70
2022-10-02T02:17:23.382Z,1.58
2022-10-02T02:20:15.056Z,1.55
2022-10-02T02:23:08.212Z,1.73
2022-10-02T02:25:59.752Z,1.77
2022-10-02T02:28:53.518Z,2.00
2022-10-02T02:31:53.088Z,1.88
2022-10-02T02:34:46.531Z,2.00
2022-10-02T02:37:33.939Z,2.05
2022-10-02T02:40:29.276Z,1.58
2022-10-02T02:43:22.095Z,1.70
2022-10-02T02:46:15.168Z,1.65
2022-10-02T02:49:10.298Z,2.40
2022-10-02T02:51:59.444Z,1.83
2022-10-02T02:55:00.318Z,1.83
2022-10-02T02:58:04.239Z,1.80
2022-10-02T03:00:49.320Z,2.05
2022-10-02T03:03:35.476Z,1.80
2022-10-02T03:06:31.442Z,1.95
2022-10-02T03:09:20.094Z,1.95
2022-10-02T03:12:42.137Z,2.20
2022-10-02T03:16:01.187Z,2.20
2022-10-02T03:18:56.599Z,2.05
2022-10-02T03:21:54.231Z,2.53
2022-10-02T03:25:08.307Z,2.20
2022-10-02T03:28:03.475Z,2.03
2022-10-02T03:30:50.180Z,1.65
2022-10-02T03:33:37.233Z,2.22
2022-10-02T03:36:24.355Z,1.60
2022-10-02T03:39:26.279Z,2.35
2022-10-02T03:42:13.564Z,2.30
2022-10-02T03:44:58.762Z,1.77
2022-10-02T03:47:43.576Z,1.90
2022-10-02T03:50:31.725Z,1.80
2022-10-02T03:53:21.941Z,1.63
2022-10-02T03:56:18.839Z,1.70
2022-10-02T03:59:10.427Z,2.13
2022-10-02T04:01:57.978Z,2.17
2022-10-02T04:04:51.912Z,1.88
2022-10-02T04:07:41.891Z,1.67
2022-10-02T04:10:52.280Z,1.90
2022-10-02T04:14:09.939Z,1.85
2022-10-02T04:17:08.236Z,1.98
2022-10-02T04:20:03.232Z,1.88
2022-10-02T04:23:06.428Z,1.70
2022-10-02T04:25:55.227Z,1.83
2022-10-02T04:28:44.335Z,1.83
2022-10-02T04:31:29.135Z,1.75
2022-10-02T04:34:14.018Z,1.38
2022-10-02T04:37:40.244Z,1.77
2022-10-02T04:41:04.356Z,1.73
2022-10-02T04:44:04.520Z,1.52
2022-10-02T04:46:55.310Z,1.52
2022-10-02T04:50:06.504Z,1.73
2022-10-02T04:53:01.751Z,1.38
2022-10-02T04:56:14.451Z,2.43
2022-10-02T04:59:19.268Z,1.40
2022-10-02T05:02:22.871Z,1.92
2022-10-02T05:05:16.916Z,1.35
2022-10-02T05:08:30.260Z,1.55
2022-10-02T05:11:57.922Z,1.00
2022-10-02T05:15:06.956Z,1.35
2022-10-02T05:18:28.499Z,1.40
2022-10-02T05:21:43.971Z,1.58
2022-10-02T05:24:42.194Z,1.65
2022-10-02T05:27:52.370Z,1.27
2022-10-02T05:31:13.682Z,1.10
2022-10-02T05:34:25.191Z,1.35
2022-10-02T05:37:30.680Z,1.25
2022-10-02T05:40:31.733Z,1.15
2022-10-02T05:43:43.853Z,1.10
2022-10-02T05:46:40.006Z,1.00
2022-10-02T05:49:35.839Z,0.95
2022-10-02T05:52:25.999Z,1.40
2022-10-02T05:55:31.485Z,1.38
2022-10-02T05:58:28.418Z,0.97
2022-10-02T06:01:21.085Z,1.35
2022-10-02T06:04:27.338Z,1.30
2022-10-02T06:07:17.782Z,1.20
2022-10-02T06:10:12.315Z,1.40
2022-10-02T06:13:06.740Z,0.97
2022-10-02T06:16:08.846Z,1.23
2022-10-02T06:19:02.156Z,1.02
2022-10-02T06:22:10.695Z,0.80
2022-10-02T06:25:02.951Z,0.90
2022-10-02T06:27:57.740Z,1.00
2022-10-02T06:30:49.210Z,1.73
2022-10-02T06:33:34.180Z,1.05
2022-10-02T06:36:38.505Z,1.08
2022-10-02T06:39:49.521Z,0.90
2022-10-02T06:43:04.250Z,0.87
2022-10-02T06:46:11.517Z,0.98
2022-10-02T06:49:04.324Z,1.13
2022-10-02T06:52:07.180Z,1.10
2022-10-02T06:55:28.511Z,1.00
2022-10-02T06:58:13.276Z,0.80
2022-10-02T07:01:10.514Z,1.10
2022-10-02T07:04:09.426Z,1.35
2022-10-02T07:07:21.045Z,0.90
2022-10-02T07:10:28.601Z,1.10
2022-10-02T07:13:35.538Z,1.23
2022-10-02T07:16:42.408Z,1.00
2022-10-02T07:19:40.109Z,1.08
2022-10-02T07:22:44.530Z,1.00
2022-10-02T07:25:58.807Z,1.30
2022-10-02T07:28:53.939Z,1.10
2022-10-02T07:31:58.001Z,1.10
2022-10-02T07:35:05.751Z,1.10
2022-10-02T07:38:17.029Z,1.25
2022-10-02T07:41:26.779Z,1.30
2022-10-02T07:44:30.539Z,1.13
2022-10-02T07:47:30.893Z,1.15
2022-10-02T07:50:31.544Z,0.98
2022-10-02T07:53:38.824Z,1.20
2022-10-02T07:56:24.788Z,1.38
2022-10-02T07:59:15.771Z,1.20
2022-10-02T08:02:07.915Z,1.00
2022-10-02T08:04:58.653Z,1.15
2022-10-02T08:07:46.809Z,1.05
2022-10-02T08:10:37.711Z,0.80
2022-10-02T08:13:35.068Z,0.40
2022-10-02T08:16:23.135Z,1.00
2022-10-02T08:19:15.860Z,1.10
2022-10-02T08:22:10.001Z,0.63
2022-10-02T08:24:58.940Z,0.80
2022-10-02T08:27:58.603Z,0.70
2022-10-02T08:30:43.967Z,0.80
2022-10-02T08:33:32.048Z,1.00
2022-10-02T08:36:51.981Z,1.20
2022-10-02T08:39:52.932Z,0.75
2022-10-02T08:42:59.656Z,0.50
2022-10-02T08:46:23.666Z,0.60
2022-10-02T08:49:18.732Z,1.10
2022-10-02T08:52:25.016Z,0.50
2022-10-02T08:55:52.076Z,0.63
2022-10-02T08:59:18.159Z,0.80
2022-10-02T09:02:41.108Z,0.60
2022-10-02T09:05:53.059Z,0.80
2022-10-02T09:08:57.216Z,0.80
2022-10-02T09:12:17.712Z,0.82
2022-10-02T09:15:15.240Z,0.60
2022-10-02T09:18:19.023Z,0.90
2022-10-02T09:21:27.336Z,0.90
2022-10-02T09:24:21.246Z,0.90
2022-10-02T09:27:18.526Z,0.88
2022-10-02T09:30:39.344Z,0.60
2022-10-02T09:33:53.519Z,0.70
2022-10-02T09:36:58.035Z,0.93
2022-10-02T09:40:08.660Z,0.88
2022-10-02T09:43:11.289Z,0.98
2022-10-02T09:46:21.565Z,0.67
2022-10-02T09:49:43.731Z,0.80
2022-10-02T09:52:45.180Z,0.85
2022-10-02T09:55:50.007Z,0.90
2022-10-02T09:59:07.557Z,0.77
2022-10-02T10:02:19.017Z,0.80
2022-10-02T10:05:38.406Z,1.00
2022-10-02T10:09:08.734Z,0.65
2022-10-02T10:12:31.831Z,0.85
2022-10-02T10:16:03.353Z,0.70
2022-10-02T10:19:23.476Z,0.60
2022-10-02T10:22:33.276Z,0.88
2022-10-02T10:25:42.693Z,0.68
2022-10-02T10:29:09.068Z,0.70
2022-10-02T10:32:41.179Z,0.80
2022-10-02T10:35:52.350Z,1.00
2022-10-02T10:38:40.101Z,0.90
2022-10-02T10:41:41.479Z,0.88
2022-10-02T10:44:38.499Z,0.80
2022-10-02T10:47:46.378Z,0.90
2022-10-02T10:50:49.096Z,1.00
2022-10-02T10:53:50.491Z,1.00
2022-10-02T10:56:49.104Z,1.13
2022-10-02T10:59:53.174Z,1.48
2022-10-02T11:02:54.479Z,0.90
2022-10-02T11:06:06.330Z,0.90
2022-10-02T11:09:32.637Z,1.10
2022-10-02T11:12:30.041Z,1.00
2022-10-02T11:15:53.584Z,0.90
2022-10-02T11:18:56.652Z,1.10
2022-10-02T11:22:11.428Z,0.83
2022-10-02T11:25:26.252Z,1.60
2022-10-02T11:28:28.449Z,1.52
2022-10-02T11:31:29.755Z,0.93
2022-10-02T11:35:01.607Z,1.10
2022-10-02T11:38:05.387Z,0.93
2022-10-02T11:41:21.352Z,1.23
2022-10-02T11:44:31.054Z,0.90
2022-10-02T11:47:19.277Z,1.00
2022-10-02T11:50:37.125Z,1.00
2022-10-02T11:53:34.419Z,1.37
2022-10-02T11:56:29.227Z,0.85
2022-10-02T11:59:47.846Z,0.90
2022-10-02T12:02:47.594Z,1.00
2022-10-02T12:05:55.111Z,1.23
2022-10-02T12:09:07.212Z,1.60
2022-10-02T12:12:19.124Z,1.25
2022-10-02T12:15:39.747Z,1.42
2022-10-02T12:19:03.816Z,1.40
2022-10-02T12:22:34.351Z,1.30
2022-10-02T12:25:57.776Z,1.50
2022-10-02T12:28:56.047Z,1.40
2022-10-02T12:32:07.973Z,1.40
2022-10-02T12:35:06.605Z,1.63
2022-10-02T12:38:06.525Z,1.55
2022-10-02T12:41:00.378Z,1.40
2022-10-02T12:44:10.327Z,1.50
2022-10-02T12:47:20.931Z,1.67
2022-10-02T12:50:22.106Z,1.20
2022-10-02T12:53:28.942Z,1.35
2022-10-02T12:56:35.910Z,1.30
2022-10-02T12:59:36.103Z,1.52
2022-10-02T13:03:01.799Z,1.58
2022-10-02T13:05:53.260Z,1.77
2022-10-02T13:08:54.869Z,1.58
2022-10-02T13:12:11.326Z,2.10
2022-10-02T13:15:21.852Z,1.05
2022-10-02T13:18:25.286Z,1.40
2022-10-02T13:21:23.843Z,1.50
2022-10-02T13:24:19.096Z,1.50
2022-10-02T13:27:33.571Z,1.77
2022-10-02T13:30:25.834Z,1.30
2022-10-02T13:33:24.555Z,1.25
2022-10-02T13:36:16.991Z,1.70
2022-10-02T13:39:19.482Z,1.30
2022-10-02T13:42:29.127Z,1.30
2022-10-02T13:45:56.868Z,1.40
2022-10-02T13:48:54.918Z,1.42
2022-10-02T13:51:58.150Z,1.55
2022-10-02T13:54:43.046Z,1.52
2022-10-02T13:57:56.092Z,1.40
2022-10-02T14:01:08.029Z,1.65
2022-10-02T14:04:04.909Z,1.50
2022-10-02T14:07:15.824Z,1.40
2022-10-02T14:10:14.973Z,1.70
2022-10-02T14:13:18.954Z,1.57
2022-10-02T14:16:25.424Z,1.65
2022-10-02T14:19:27.583Z,1.70
2022-10-02T14:22:40.134Z,1.60
2022-10-02T14:25:57.247Z,1.30
2022-10-02T14:29:21.173Z,1.77
2022-10-02T14:32:47.576Z,1.95
2022-10-02T14:35:58.028Z,1.70
2022-10-02T14:39:00.299Z,1.70
2022-10-02T14:42:03.545Z,1.60
2022-10-02T14:45:19.159Z,1.77
2022-10-02T14:48:14.059Z,1.70
2022-10-02T14:51:20.479Z,1.80
2022-10-02T14:54:14.538Z,1.65
2022-10-02T14:57:08.451Z,1.70
2022-10-02T15:00:20.659Z,1.87
2022-10-02T15:03:48.600Z,1.65
2022-10-02T15:07:01.444Z,1.50
2022-10-02T15:10:03.946Z,1.58
2022-10-02T15:12:58.503Z,1.60
2022-10-02T15:16:14.737Z,1.80
2022-10-02T15:19:24.814Z,1.50
2022-10-02T15:22:24.282Z,1.75
2022-10-02T15:25:32.875Z,1.70
2022-10-02T15:28:41.741Z,1.73
2022-10-02T15:31:55.478Z,1.60
2022-10-02T15:34:46.381Z,1.67
2022-10-02T15:38:09.115Z,1.73
2022-10-02T15:41:12.536Z,1.60
2022-10-02T15:44:09.625Z,1.77
2022-10-02T15:47:23.168Z,1.80
2022-10-02T15:50:23.534Z,1.58
2022-10-02T15:53:24.738Z,1.45
2022-10-02T15:56:41.117Z,1.33
2022-10-02T15:59:59.096Z,1.70
2022-10-02T16:03:20.872Z,1.60
2022-10-02T16:06:10.073Z,1.73
2022-10-02T16:09:15.661Z,2.00
2022-10-02T16:12:17.236Z,2.20
2022-10-02T16:15:23.563Z,2.00
2022-10-02T16:18:08.589Z,1.53
2022-10-02T16:21:12.460Z,1.95
2022-10-02T16:24:18.211Z,1.90
2022-10-02T16:27:09.354Z,2.20
2022-10-02T16:30:08.252Z,2.08
2022-10-02T16:33:03.990Z,1.77
2022-10-02T16:36:40.424Z,2.28
2022-10-02T16:39:33.643Z,2.20
2022-10-02T16:42:40.651Z,2.40
2022-10-02T16:45:42.923Z,2.22
2022-10-02T16:49:03.666Z,1.97
2022-10-02T16:51:57.381Z,2.63
2022-10-02T16:55:03.507Z,2.60
2022-10-02T16:58:02.693Z,2.28
2022-10-02T17:01:01.902Z,2.30
2022-10-02T17:04:17.088Z,2.23
2022-10-02T17:07:21.556Z,2.00
2022-10-02T17:10:18.097Z,2.45
2022-10-02T17:13:16.683Z,2.25
2022-10-02T17:16:20.244Z,2.28
2022-10-02T17:19:28.170Z,2.27
2022-10-02T17:22:33.000Z,2.13
2022-10-02T17:25:29.788Z,2.28
2022-10-02T17:28:29.513Z,2.80
2022-10-02T17:31:29.947Z,2.40
2022-10-02T17:34:18.737Z,2.27
2022-10-02T17:37:26.877Z,2.70
2022-10-02T17:40:58.202Z,2.33
2022-10-02T17:44:02.744Z,2.72
2022-10-02T17:46:50.633Z,3.25
2022-10-02T17:49:59.241Z,2.83
2022-10-02T17:53:07.174Z,2.67
2022-10-02T17:56:30.543Z,3.10
2022-10-02T17:59:37.068Z,3.20
2022-10-02T18:02:46.203Z,2.97
2022-10-02T18:06:09.757Z,3.27
2022-10-02T18:09:02.926Z,3.30
2022-10-02T18:11:58.339Z,3.25
2022-10-02T18:15:06.218Z,3.03
2022-10-02T18:18:30.247Z,3.50
2022-10-02T18:21:37.194Z,3.33
2022-10-02T18:24:35.511Z,3.40
2022-10-02T18:27:42.087Z,3.13
2022-10-02T18:30:59.572Z,3.00
2022-10-02T18:34:14.136Z,3.20
2022-10-02T18:37:33.644Z,2.80
2022-10-02T18:40:28.996Z,2.95
2022-10-02T18:43:55.505Z,3.10
2022-10-02T18:47:04.199Z,3.15
2022-10-02T18:50:25.382Z,3.33
2022-10-02T18:53:48.309Z,3.30
2022-10-02T18:57:00.676Z,2.95
2022-10-02T19:00:22.005Z,3.28
2022-10-02T19:03:41.319Z,2.97
2022-10-02T19:06:33.231Z,3.20
2022-10-02T19:09:28.868Z,2.93
2022-10-02T19:12:25.087Z,3.47
2022-10-02T19:15:22.435Z,4.07
2022-10-02T19:18:25.229Z,3.17
2022-10-02T19:21:19.025Z,3.78
2022-10-02T19:24:15.099Z,3.30
2022-10-02T19:27:05.871Z,3.63
2022-10-02T19:30:05.279Z,3.80
2022-10-02T19:32:54.510Z,3.53
2022-10-02T19:35:43.835Z,4.13
2022-10-02T19:38:39.994Z,3.97
2022-10-02T19:41:27.279Z,3.80
2022-10-02T19:44:41.238Z,3.92
2022-10-02T19:47:33.561Z,4.10
2022-10-02T19:50:24.678Z,5.00
2022-10-02T19:53:34.813Z,4.20
2022-10-02T19:56:43.642Z,4.07
2022-10-02T19:59:42.854Z,4.65
2022-10-02T20:02:43.192Z,4.72
2022-10-02T20:05:32.798Z,4.75
2022-10-02T20:08:23.657Z,4.60
2022-10-02T20:11:20.107Z,4.63
2022-10-02T20:14:20.037Z,5.05
2022-10-02T20:17:12.547Z,4.80
2022-10-02T20:20:08.149Z,4.57
2022-10-02T20:23:03.561Z,4.40
2022-10-02T20:25:53.483Z,4.70
2022-10-02T20:28:47.696Z,4.90
2022-10-02T20:31:46.450Z,4.28
2022-10-02T20:34:50.328Z,4.60
2022-10-02T20:37:39.719Z,4.63
2022-10-02T20:40:29.728Z,4.60
2022-10-02T20:43:19.899Z,4.90
2022-10-02T20:46:17.305Z,4.90
2022-10-02T20:49:18.046Z,4.78
2022-10-02T20:52:40.266Z,5.10
2022-10-02T20:55:46.442Z,4.65
2022-10-02T20:59:06.158Z,4.80
2022-10-02T21:02:26.345Z,4.72
2022-10-02T21:05:31.567Z,4.50
2022-10-02T21:08:54.636Z,4.60
2022-10-02T21:12:12.955Z,4.28
2022-10-02T21:15:01.026Z,4.40
2022-10-02T21:18:07.501Z,4.32
2022-10-02T21:21:17.411Z,3.90
2022-10-02T21:24:08.545Z,3.53
2022-10-02T21:27:42.432Z,3.92
2022-10-02T21:30:52.013Z,3.25
2022-10-02T21:33:48.546Z,3.70
2022-10-02T21:36:45.481Z,3.33
2022-10-02T21:40:08.419Z,3.27
2022-10-02T21:43:31.837Z,3.42
2022-10-02T21:46:54.659Z,2.95
2022-10-02T21:50:16.833Z,3.28
2022-10-02T21:53:37.528Z,3.17
2022-10-02T21:56:56.705Z,3.13
2022-10-02T22:00:08.640Z,2.92
2022-10-02T22:03:04.307Z,3.30
2022-10-02T22:06:30.550Z,3.05
2022-10-02T22:09:35.568Z,3.50
2022-10-02T22:12:41.005Z,3.30
2022-10-02T22:15:38.079Z,3.25
2022-10-02T22:19:11.480Z,3.58
2022-10-02T22:22:25.583Z,2.90
2022-10-02T22:25:19.502Z,3.35
2022-10-02T22:28:41.592Z,3.37
2022-10-02T22:31:35.878Z,3.03
2022-10-02T22:34:41.488Z,3.20
2022-10-02T22:37:46.832Z,3.05
2022-10-02T22:40:44.376Z,2.80
2022-10-02T22:43:40.852Z,2.63
2022-10-02T22:46:47.324Z,2.47
2022-10-02T22:49:43.899Z,2.40
2022-10-02T22:52:47.171Z,1.98
2022-10-02T22:55:46.200Z,2.47
2022-10-02T22:58:53.811Z,2.17
2022-10-02T23:01:46.957Z,2.63
2022-10-02T23:04:39.040Z,2.30
2022-10-02T23:07:37.954Z,2.28
2022-10-02T23:10:54.823Z,2.67
2022-10-02T23:13:52.413Z,2.33
2022-10-02T23:17:15.884Z,2.53
2022-10-02T23:20:14.464Z,2.75
2022-10-02T23:23:19.223Z,2.50
2022-10-02T23:26:16.357Z,2.70
2022-10-02T23:29:32.258Z,2.87
2022-10-02T23:32:44.350Z,2.92
2022-10-02T23:35:38.545Z,2.80
2022-10-02T23:38:56.243Z,2.70
2022-10-02T23:41:47.181Z,2.45
2022-10-02T23:44:45.550Z,2.57
2022-10-02T23:47:58.188Z,2.92
2022-10-02T23:50:49.772Z,2.30
2022-10-02T23:53:56.423Z,2.50
2022-10-02T23:57:03.575Z,2.70
